sensor_id;sensor_type;location;lat;lon;timestamp;P1;durP1;ratioP1;P2;durP2;ratioP2
15812;SDS011;8007;51.404;6.304;2022-10-17T00:00:53;7.90;;;6.93;;
15812;SDS011;8007;51.404;6.304;2022-10-17T00:02:55;7.97;;;7.10;;
15812;SDS011;8007;51.404;6.304;2022-10-17T00:04:58;10.17;;;7.20;;
15812;SDS011;8007;51.404;6.304;2022-10-17T00:07:00;9.77;;;7.57;;
15812;SDS011;8007;51.404;6.304;2022-10-17T00:09:03;9.77;;;7.80;;
15812;SDS011;8007;51.404;6.304;2022-10-17T00:11:07;7.40;;;6.67;;
15812;SDS011;8007;51.404;6.304;2022-10-17T00:13:09;10.10;;;7.67;;
15812;SDS011;8007;51.404;6.304;2022-10-17T00:15:14;8.80;;;7.20;;
15812;SDS011;8007;51.404;6.304;2022-10-17T00:17:16;8.97;;;7.07;;
15812;SDS011;8007;51.404;6.304;2022-10-17T00:19:18;9.90;;;7.57;;
15812;SDS011;8007;51.404;6.304;2022-10-17T00:21:21;10.77;;;8.47;;
15812;SDS011;8007;51.404;6.304;2022-10-17T00:23:24;7.97;;;7.10;;
15812;SDS011;8007;51.404;6.304;2022-10-17T00:25:29;8.33;;;7.20;;
15812;SDS011;8007;51.404;6.304;2022-10-17T00:27:33;12.00;;;7.70;;
15812;SDS011;8007;51.404;6.304;2022-10-17T00:29:35;10.53;;;8.10;;
15812;SDS011;8007;51.404;6.304;2022-10-17T00:31:37;9.40;;;7.97;;
15812;SDS011;8007;51.404;6.304;2022-10-17T00:33:39;10.30;;;8.30;;
15812;SDS011;8007;51.404;6.304;2022-10-17T00:35:43;10.47;;;8.50;;
15812;SDS011;8007;51.404;6.304;2022-10-17T00:37:45;11.37;;;8.40;;
15812;SDS011;8007;51.404;6.304;2022-10-17T00:39:47;11.80;;;8.13;;
15812;SDS011;8007;51.404;6.304;2022-10-17T00:41:51;12.20;;;8.70;;
15812;SDS011;8007;51.404;6.304;2022-10-17T00:43:54;11.97;;;8.37;;
15812;SDS011;8007;51.404;6.304;2022-10-17T00:45:57;12.10;;;9.17;;
15812;SDS011;8007;51.404;6.304;2022-10-17T00:48:00;12.17;;;8.70;;
15812;SDS011;8007;51.404;6.304;2022-10-17T00:50:04;9.27;;;7.93;;
15812;SDS011;8007;51.404;6.304;2022-10-17T00:52:08;12.57;;;9.63;;
15812;SDS011;8007;51.404;6.304;2022-10-17T00:54:11;12.27;;;9.07;;
15812;SDS011;8007;51.404;6.304;2022-10-17T00:56:14;12.00;;;9.17;;
15812;SDS011;8007;51.404;6.304;2022-10-17T00:58:17;11.43;;;9.10;;
15812;SDS011;8007;51.404;6.304;2022-10-17T01:00:20;13.53;;;9.77;;
15812;SDS011;8007;51.404;6.304;2022-10-17T01:02:23;13.77;;;9.20;;
15812;SDS011;8007;51.404;6.304;2022-10-17T01:04:25;14.40;;;9.40;;
15812;SDS011;8007;51.404;6.304;2022-10-17T01:06:27;11.47;;;9.70;;
15812;SDS011;8007;51.404;6.304;2022-10-17T01:08:29;14.40;;;9.93;;
15812;SDS011;8007;51.404;6.304;2022-10-17T01:10:32;12.07;;;9.67;;
15812;SDS011;8007;51.404;6.304;2022-10-17T01:12:47;14.37;;;9.57;;
15812;SDS011;8007;51.404;6.304;2022-10-17T01:15:00;13.03;;;9.90;;
15812;SDS011;8007;51.404;6.304;2022-10-17T01:17:04;14.03;;;9.87;;
15812;SDS011;8007;51.404;6.304;2022-10-17T01:19:17;12.77;;;9.70;;
15812;SDS011;8007;51.404;6.304;2022-10-17T01:21:32;12.87;;;10.37;;
15812;SDS011;8007;51.404;6.304;2022-10-17T01:23:53;17.00;;;10.67;;
15812;SDS011;8007;51.404;6.304;2022-10-17T01:26:03;13.57;;;10.13;;
15812;SDS011;8007;51.404;6.304;2022-10-17T01:28:13;11.33;;;9.43;;
15812;SDS011;8007;51.404;6.304;2022-10-17T01:30:28;13.43;;;9.67;;
15812;SDS011;8007;51.404;6.304;2022-10-17T01:32:37;13.27;;;10.13;;
15812;SDS011;8007;51.404;6.304;2022-10-17T01:34:43;14.07;;;10.87;;
15812;SDS011;8007;51.404;6.304;2022-10-17T01:36:47;15.67;;;11.07;;
15812;SDS011;8007;51.404;6.304;2022-10-17T01:38:51;14.97;;;10.30;;
15812;SDS011;8007;51.404;6.304;2022-10-17T01:40:55;15.17;;;11.40;;
15812;SDS011;8007;51.404;6.304;2022-10-17T01:43:01;19.17;;;11.90;;
15812;SDS011;8007;51.404;6.304;2022-10-17T01:45:06;15.60;;;11.33;;
15812;SDS011;8007;51.404;6.304;2022-10-17T01:47:10;15.90;;;11.07;;
15812;SDS011;8007;51.404;6.304;2022-10-17T01:49:16;16.47;;;11.50;;
15812;SDS011;8007;51.404;6.304;2022-10-17T01:51:23;14.60;;;11.10;;
15812;SDS011;8007;51.404;6.304;2022-10-17T01:53:27;15.77;;;11.37;;
15812;SDS011;8007;51.404;6.304;2022-10-17T01:55:31;15.97;;;11.83;;
15812;SDS011;8007;51.404;6.304;2022-10-17T01:57:34;14.93;;;11.60;;
15812;SDS011;8007;51.404;6.304;2022-10-17T01:59:39;19.67;;;11.33;;
15812;SDS011;8007;51.404;6.304;2022-10-17T02:01:42;14.43;;;12.30;;
15812;SDS011;8007;51.404;6.304;2022-10-17T02:03:45;14.00;;;11.07;;
15812;SDS011;8007;51.404;6.304;2022-10-17T02:05:51;16.70;;;11.83;;
15812;SDS011;8007;51.404;6.304;2022-10-17T02:07:53;15.23;;;12.20;;
15812;SDS011;8007;51.404;6.304;2022-10-17T02:09:55;17.10;;;12.90;;
15812;SDS011;8007;51.404;6.304;2022-10-17T02:12:02;17.97;;;12.17;;
15812;SDS011;8007;51.404;6.304;2022-10-17T02:14:12;19.20;;;12.20;;
15812;SDS011;8007;51.404;6.304;2022-10-17T02:16:19;16.33;;;11.40;;
15812;SDS011;8007;51.404;6.304;2022-10-17T02:18:33;18.67;;;11.57;;
15812;SDS011;8007;51.404;6.304;2022-10-17T02:20:39;15.07;;;11.60;;
15812;SDS011;8007;51.404;6.304;2022-10-17T02:22:47;15.87;;;11.77;;
15812;SDS011;8007;51.404;6.304;2022-10-17T02:24:51;18.83;;;11.77;;
15812;SDS011;8007;51.404;6.304;2022-10-17T02:26:55;17.23;;;11.70;;
15812;SDS011;8007;51.404;6.304;2022-10-17T02:29:02;18.17;;;12.17;;
15812;SDS011;8007;51.404;6.304;2022-10-17T02:31:07;18.87;;;12.27;;
15812;SDS011;8007;51.404;6.304;2022-10-17T02:33:11;17.57;;;11.43;;
15812;SDS011;8007;51.404;6.304;2022-10-17T02:35:14;16.90;;;11.10;;
15812;SDS011;8007;51.404;6.304;2022-10-17T02:37:18;18.40;;;11.80;;
15812;SDS011;8007;51.404;6.304;2022-10-17T02:39:22;14.40;;;11.27;;
15812;SDS011;8007;51.404;6.304;2022-10-17T02:41:25;16.77;;;12.00;;
15812;SDS011;8007;51.404;6.304;2022-10-17T02:43:27;15.30;;;11.83;;
15812;SDS011;8007;51.404;6.304;2022-10-17T02:45:30;16.50;;;11.87;;
15812;SDS011;8007;51.404;6.304;2022-10-17T02:47:35;16.47;;;11.90;;
15812;SDS011;8007;51.404;6.304;2022-10-17T02:49:40;19.17;;;12.83;;
15812;SDS011;8007;51.404;6.304;2022-10-17T02:51:46;15.27;;;12.00;;
15812;SDS011;8007;51.404;6.304;2022-10-17T02:53:50;19.10;;;12.00;;
15812;SDS011;8007;51.404;6.304;2022-10-17T02:55:55;16.07;;;11.90;;
15812;SDS011;8007;51.404;6.304;2022-10-17T02:58:00;15.57;;;11.67;;
15812;SDS011;8007;51.404;6.304;2022-10-17T03:00:04;14.40;;;12.03;;
15812;SDS011;8007;51.404;6.304;2022-10-17T03:02:08;20.57;;;12.43;;
15812;SDS011;8007;51.404;6.304;2022-10-17T03:04:11;19.00;;;12.37;;
15812;SDS011;8007;51.404;6.304;2022-10-17T03:06:14;18.87;;;11.90;;
15812;SDS011;8007;51.404;6.304;2022-10-17T03:08:16;16.53;;;11.90;;
15812;SDS011;8007;51.404;6.304;2022-10-17T03:10:18;14.30;;;11.53;;
15812;SDS011;8007;51.404;6.304;2022-10-17T03:12:22;14.37;;;11.70;;
15812;SDS011;8007;51.404;6.304;2022-10-17T03:14:24;19.37;;;12.17;;
15812;SDS011;8007;51.404;6.304;2022-10-17T03:16:26;15.23;;;12.53;;
15812;SDS011;8007;51.404;6.304;2022-10-17T03:18:29;15.67;;;11.57;;
15812;SDS011;8007;51.404;6.304;2022-10-17T03:20:31;16.07;;;12.67;;
15812;SDS011;8007;51.404;6.304;2022-10-17T03:22:33;17.40;;;11.73;;
15812;SDS011;8007;51.404;6.304;2022-10-17T03:24:35;15.87;;;11.70;;
15812;SDS011;8007;51.404;6.304;2022-10-17T03:26:37;17.83;;;11.73;;
15812;SDS011;8007;51.404;6.304;2022-10-17T03:28:41;18.87;;;12.43;;
15812;SDS011;8007;51.404;6.304;2022-10-17T03:30:43;14.00;;;11.37;;
15812;SDS011;8007;51.404;6.304;2022-10-17T03:32:45;18.17;;;12.50;;
15812;SDS011;8007;51.404;6.304;2022-10-17T03:34:48;16.47;;;11.90;;
15812;SDS011;8007;51.404;6.304;2022-10-17T03:36:50;14.63;;;11.50;;
15812;SDS011;8007;51.404;6.304;2022-10-17T03:38:52;18.60;;;12.27;;
15812;SDS011;8007;51.404;6.304;2022-10-17T03:40:54;17.40;;;12.30;;
15812;SDS011;8007;51.404;6.304;2022-10-17T03:42:57;19.60;;;11.60;;
15812;SDS011;8007;51.404;6.304;2022-10-17T03:45:00;14.33;;;11.60;;
15812;SDS011;8007;51.404;6.304;2022-10-17T03:47:02;16.03;;;11.30;;
15812;SDS011;8007;51.404;6.304;2022-10-17T03:49:04;19.50;;;12.63;;
15812;SDS011;8007;51.404;6.304;2022-10-17T03:51:07;20.00;;;12.20;;
15812;SDS011;8007;51.404;6.304;2022-10-17T03:53:10;16.97;;;11.60;;
15812;SDS011;8007;51.404;6.304;2022-10-17T03:55:12;21.63;;;12.10;;
15812;SDS011;8007;51.404;6.304;2022-10-17T03:57:14;17.47;;;12.17;;
15812;SDS011;8007;51.404;6.304;2022-10-17T03:59:16;16.50;;;11.20;;
15812;SDS011;8007;51.404;6.304;2022-10-17T04:01:20;17.03;;;11.93;;
15812;SDS011;8007;51.404;6.304;2022-10-17T04:03:22;18.83;;;11.67;;
15812;SDS011;8007;51.404;6.304;2022-10-17T04:05:25;14.83;;;11.97;;
15812;SDS011;8007;51.404;6.304;2022-10-17T04:07:27;17.90;;;12.20;;
15812;SDS011;8007;51.404;6.304;2022-10-17T04:09:29;20.27;;;12.27;;
15812;SDS011;8007;51.404;6.304;2022-10-17T04:11:31;18.07;;;12.20;;
15812;SDS011;8007;51.404;6.304;2022-10-17T04:13:34;18.43;;;12.57;;
15812;SDS011;8007;51.404;6.304;2022-10-17T04:15:36;21.93;;;13.43;;
15812;SDS011;8007;51.404;6.304;2022-10-17T04:17:40;17.60;;;11.90;;
15812;SDS011;8007;51.404;6.304;2022-10-17T04:19:42;14.43;;;11.53;;
15812;SDS011;8007;51.404;6.304;2022-10-17T04:21:44;15.07;;;12.17;;
15812;SDS011;8007;51.404;6.304;2022-10-17T04:23:46;15.10;;;12.00;;
15812;SDS011;8007;51.404;6.304;2022-10-17T04:25:48;17.20;;;11.80;;
15812;SDS011;8007;51.404;6.304;2022-10-17T04:27:50;17.33;;;12.37;;
15812;SDS011;8007;51.404;6.304;2022-10-17T04:29:53;15.63;;;11.80;;
15812;SDS011;8007;51.404;6.304;2022-10-17T04:31:55;16.57;;;11.50;;
15812;SDS011;8007;51.404;6.304;2022-10-17T04:33:58;16.23;;;12.73;;
15812;SDS011;8007;51.404;6.304;2022-10-17T04:36:01;16.30;;;11.77;;
15812;SDS011;8007;51.404;6.304;2022-10-17T04:38:03;17.03;;;12.40;;
15812;SDS011;8007;51.404;6.304;2022-10-17T04:40:06;18.00;;;12.87;;
15812;SDS011;8007;51.404;6.304;2022-10-17T04:42:08;16.67;;;11.77;;
15812;SDS011;8007;51.404;6.304;2022-10-17T04:44:11;17.87;;;11.97;;
15812;SDS011;8007;51.404;6.304;2022-10-17T04:46:13;16.13;;;11.13;;
15812;SDS011;8007;51.404;6.304;2022-10-17T04:48:16;15.97;;;11.47;;
15812;SDS011;8007;51.404;6.304;2022-10-17T04:50:19;17.10;;;11.73;;
15812;SDS011;8007;51.404;6.304;2022-10-17T04:52:21;15.23;;;12.10;;
15812;SDS011;8007;51.404;6.304;2022-10-17T04:54:24;13.60;;;11.70;;
15812;SDS011;8007;51.404;6.304;2022-10-17T04:56:26;21.33;;;12.87;;
15812;SDS011;8007;51.404;6.304;2022-10-17T04:58:28;18.20;;;11.77;;
15812;SDS011;8007;51.404;6.304;2022-10-17T05:00:31;16.67;;;12.23;;
15812;SDS011;8007;51.404;6.304;2022-10-17T05:02:33;18.83;;;11.97;;
15812;SDS011;8007;51.404;6.304;2022-10-17T05:04:35;19.73;;;11.70;;
15812;SDS011;8007;51.404;6.304;2022-10-17T05:06:39;17.43;;;11.73;;
15812;SDS011;8007;51.404;6.304;2022-10-17T05:08:41;16.70;;;12.37;;
15812;SDS011;8007;51.404;6.304;2022-10-17T05:10:43;16.63;;;11.77;;
15812;SDS011;8007;51.404;6.304;2022-10-17T05:12:46;17.57;;;12.33;;
15812;SDS011;8007;51.404;6.304;2022-10-17T05:14:48;16.47;;;11.83;;
15812;SDS011;8007;51.404;6.304;2022-10-17T05:16:50;16.43;;;11.73;;
15812;SDS011;8007;51.404;6.304;2022-10-17T05:18:53;17.43;;;10.83;;
15812;SDS011;8007;51.404;6.304;2022-10-17T05:20:55;16.20;;;11.23;;
15812;SDS011;8007;51.404;6.304;2022-10-17T05:22:59;17.60;;;10.97;;
15812;SDS011;8007;51.404;6.304;2022-10-17T05:25:01;14.90;;;11.30;;
15812;SDS011;8007;51.404;6.304;2022-10-17T05:27:03;18.40;;;11.17;;
15812;SDS011;8007;51.404;6.304;2022-10-17T05:29:05;16.03;;;10.30;;
15812;SDS011;8007;51.404;6.304;2022-10-17T05:31:08;15.80;;;11.47;;
15812;SDS011;8007;51.404;6.304;2022-10-17T05:33:11;16.23;;;11.67;;
15812;SDS011;8007;51.404;6.304;2022-10-17T05:35:13;13.87;;;10.93;;
15812;SDS011;8007;51.404;6.304;2022-10-17T05:37:15;16.50;;;10.60;;
15812;SDS011;8007;51.404;6.304;2022-10-17T05:39:20;16.83;;;11.30;;
15812;SDS011;8007;51.404;6.304;2022-10-17T05:41:22;17.97;;;11.50;;
15812;SDS011;8007;51.404;6.304;2022-10-17T05:43:24;17.10;;;10.87;;
15812;SDS011;8007;51.404;6.304;2022-10-17T05:45:26;16.40;;;11.47;;
15812;SDS011;8007;51.404;6.304;2022-10-17T05:47:29;16.70;;;11.37;;
15812;SDS011;8007;51.404;6.304;2022-10-17T05:49:31;13.40;;;10.97;;
15812;SDS011;8007;51.404;6.304;2022-10-17T05:51:33;14.57;;;11.60;;
15812;SDS011;8007;51.404;6.304;2022-10-17T05:53:36;14.73;;;10.57;;
15812;SDS011;8007;51.404;6.304;2022-10-17T05:55:40;14.97;;;10.73;;
15812;SDS011;8007;51.404;6.304;2022-10-17T05:57:42;18.60;;;12.47;;
15812;SDS011;8007;51.404;6.304;2022-10-17T05:59:44;18.63;;;11.60;;
15812;SDS011;8007;51.404;6.304;2022-10-17T06:01:46;15.83;;;11.03;;
15812;SDS011;8007;51.404;6.304;2022-10-17T06:03:48;20.40;;;12.47;;
15812;SDS011;8007;51.404;6.304;2022-10-17T06:05:51;15.23;;;10.77;;
15812;SDS011;8007;51.404;6.304;2022-10-17T06:07:53;15.20;;;11.40;;
15812;SDS011;8007;51.404;6.304;2022-10-17T06:09:55;16.57;;;11.43;;
15812;SDS011;8007;51.404;6.304;2022-10-17T06:11:59;19.77;;;11.93;;
15812;SDS011;8007;51.404;6.304;2022-10-17T06:14:01;15.03;;;11.63;;
15812;SDS011;8007;51.404;6.304;2022-10-17T06:16:04;19.17;;;12.27;;
15812;SDS011;8007;51.404;6.304;2022-10-17T06:18:06;18.83;;;11.40;;
15812;SDS011;8007;51.404;6.304;2022-10-17T06:20:09;13.53;;;11.00;;
15812;SDS011;8007;51.404;6.304;2022-10-17T06:22:11;16.70;;;11.63;;
15812;SDS011;8007;51.404;6.304;2022-10-17T06:24:13;17.97;;;12.40;;
15812;SDS011;8007;51.404;6.304;2022-10-17T06:26:15;18.97;;;12.23;;
15812;SDS011;8007;51.404;6.304;2022-10-17T06:28:19;17.47;;;11.90;;
15812;SDS011;8007;51.404;6.304;2022-10-17T06:30:21;18.53;;;11.63;;
15812;SDS011;8007;51.404;6.304;2022-10-17T06:32:23;16.23;;;11.23;;
15812;SDS011;8007;51.404;6.304;2022-10-17T06:34:26;12.70;;;11.10;;
15812;SDS011;8007;51.404;6.304;2022-10-17T06:36:28;16.07;;;11.60;;
15812;SDS011;8007;51.404;6.304;2022-10-17T06:38:30;16.23;;;11.27;;
15812;SDS011;8007;51.404;6.304;2022-10-17T06:40:33;17.03;;;10.97;;
15812;SDS011;8007;51.404;6.304;2022-10-17T06:42:35;14.43;;;10.87;;
15812;SDS011;8007;51.404;6.304;2022-10-17T06:44:39;18.43;;;10.67;;
15812;SDS011;8007;51.404;6.304;2022-10-17T06:46:41;15.03;;;10.97;;
15812;SDS011;8007;51.404;6.304;2022-10-17T06:48:43;15.33;;;11.20;;
15812;SDS011;8007;51.404;6.304;2022-10-17T06:50:45;13.43;;;10.87;;
15812;SDS011;8007;51.404;6.304;2022-10-17T06:52:49;13.27;;;10.20;;
15812;SDS011;8007;51.404;6.304;2022-10-17T06:54:51;16.13;;;9.77;;
15812;SDS011;8007;51.404;6.304;2022-10-17T06:56:54;15.87;;;10.70;;
15812;SDS011;8007;51.404;6.304;2022-10-17T06:58:56;12.23;;;10.40;;
15812;SDS011;8007;51.404;6.304;2022-10-17T07:01:00;13.77;;;10.47;;
15812;SDS011;8007;51.404;6.304;2022-10-17T07:03:02;14.73;;;10.47;;
15812;SDS011;8007;51.404;6.304;2022-10-17T07:05:04;14.10;;;9.90;;
15812;SDS011;8007;51.404;6.304;2022-10-17T07:07:07;15.30;;;9.90;;
15812;SDS011;8007;51.404;6.304;2022-10-17T07:09:09;13.73;;;9.63;;
15812;SDS011;8007;51.404;6.304;2022-10-17T07:11:12;13.30;;;9.90;;
15812;SDS011;8007;51.404;6.304;2022-10-17T07:13:14;16.10;;;9.50;;
15812;SDS011;8007;51.404;6.304;2022-10-17T07:15:16;11.37;;;9.40;;
15812;SDS011;8007;51.404;6.304;2022-10-17T07:17:20;15.53;;;10.17;;
15812;SDS011;8007;51.404;6.304;2022-10-17T07:19:25;14.80;;;9.57;;
15812;SDS011;8007;51.404;6.304;2022-10-17T07:21:27;11.17;;;9.20;;
15812;SDS011;8007;51.404;6.304;2022-10-17T07:23:29;14.33;;;9.33;;
15812;SDS011;8007;51.404;6.304;2022-10-17T07:25:33;14.47;;;9.13;;
15812;SDS011;8007;51.404;6.304;2022-10-17T07:27:36;10.50;;;8.50;;
15812;SDS011;8007;51.404;6.304;2022-10-17T07:29:38;11.10;;;8.33;;
15812;SDS011;8007;51.404;6.304;2022-10-17T07:31:40;10.47;;;8.47;;
15812;SDS011;8007;51.404;6.304;2022-10-17T07:33:45;12.90;;;8.97;;
15812;SDS011;8007;51.404;6.304;2022-10-17T07:35:48;10.00;;;8.83;;
15812;SDS011;8007;51.404;6.304;2022-10-17T07:37:51;12.67;;;8.70;;
15812;SDS011;8007;51.404;6.304;2022-10-17T07:39:54;11.90;;;8.80;;
15812;SDS011;8007;51.404;6.304;2022-10-17T07:41:56;13.20;;;8.33;;
15812;SDS011;8007;51.404;6.304;2022-10-17T07:43:58;10.87;;;9.13;;
15812;SDS011;8007;51.404;6.304;2022-10-17T07:46:01;15.17;;;9.20;;
15812;SDS011;8007;51.404;6.304;2022-10-17T07:48:04;16.57;;;8.03;;
15812;SDS011;8007;51.404;6.304;2022-10-17T07:50:08;8.73;;;7.73;;
15812;SDS011;8007;51.404;6.304;2022-10-17T07:52:10;7.70;;;6.90;;
15812;SDS011;8007;51.404;6.304;2022-10-17T07:54:13;9.03;;;7.10;;
15812;SDS011;8007;51.404;6.304;2022-10-17T07:56:15;7.80;;;6.87;;
15812;SDS011;8007;51.404;6.304;2022-10-17T07:58:17;10.67;;;7.00;;
15812;SDS011;8007;51.404;6.304;2022-10-17T08:00:19;7.43;;;6.73;;
15812;SDS011;8007;51.404;6.304;2022-10-17T08:02:23;8.57;;;6.47;;
15812;SDS011;8007;51.404;6.304;2022-10-17T08:04:25;9.70;;;6.20;;
15812;SDS011;8007;51.404;6.304;2022-10-17T08:06:29;7.40;;;6.70;;
15812;SDS011;8007;51.404;6.304;2022-10-17T08:08:31;10.00;;;6.53;;
15812;SDS011;8007;51.404;6.304;2022-10-17T08:10:34;8.70;;;6.10;;
15812;SDS011;8007;51.404;6.304;2022-10-17T08:12:36;10.53;;;6.37;;
15812;SDS011;8007;51.404;6.304;2022-10-17T08:14:38;6.80;;;5.87;;
15812;SDS011;8007;51.404;6.304;2022-10-17T08:16:40;9.23;;;6.53;;
15812;SDS011;8007;51.404;6.304;2022-10-17T08:18:42;8.23;;;5.90;;
15812;SDS011;8007;51.404;6.304;2022-10-17T08:20:44;5.97;;;5.30;;
15812;SDS011;8007;51.404;6.304;2022-10-17T08:22:51;8.93;;;5.77;;
15812;SDS011;8007;51.404;6.304;2022-10-17T08:24:54;9.23;;;5.20;;
15812;SDS011;8007;51.404;6.304;2022-10-17T08:26:56;7.07;;;5.90;;
15812;SDS011;8007;51.404;6.304;2022-10-17T08:28:59;9.97;;;5.90;;
15812;SDS011;8007;51.404;6.304;2022-10-17T08:31:02;11.83;;;6.37;;
15812;SDS011;8007;51.404;6.304;2022-10-17T08:33:04;12.07;;;6.57;;
15812;SDS011;8007;51.404;6.304;2022-10-17T08:35:07;8.93;;;6.37;;
15812;SDS011;8007;51.404;6.304;2022-10-17T08:37:09;5.97;;;5.37;;
15812;SDS011;8007;51.404;6.304;2022-10-17T08:39:13;7.47;;;5.90;;
15812;SDS011;8007;51.404;6.304;2022-10-17T08:41:19;11.27;;;5.83;;
15812;SDS011;8007;51.404;6.304;2022-10-17T08:43:27;8.23;;;5.70;;
15812;SDS011;8007;51.404;6.304;2022-10-17T08:45:31;7.73;;;6.23;;
15812;SDS011;8007;51.404;6.304;2022-10-17T08:47:35;10.73;;;6.20;;
15812;SDS011;8007;51.404;6.304;2022-10-17T08:49:40;8.23;;;5.70;;
15812;SDS011;8007;51.404;6.304;2022-10-17T08:51:48;7.43;;;5.50;;
15812;SDS011;8007;51.404;6.304;2022-10-17T08:53:53;9.73;;;5.87;;
15812;SDS011;8007;51.404;6.304;2022-10-17T08:55:59;10.10;;;6.13;;
15812;SDS011;8007;51.404;6.304;2022-10-17T08:58:09;6.70;;;5.90;;
15812;SDS011;8007;51.404;6.304;2022-10-17T09:00:14;8.20;;;6.37;;
15812;SDS011;8007;51.404;6.304;2022-10-17T09:02:21;19.00;;;6.07;;
15812;SDS011;8007;51.404;6.304;2022-10-17T09:04:39;10.07;;;7.13;;
15812;SDS011;8007;51.404;6.304;2022-10-17T09:06:46;7.90;;;6.17;;
15812;SDS011;8007;51.404;6.304;2022-10-17T09:08:54;8.53;;;6.03;;
15812;SDS011;8007;51.404;6.304;2022-10-17T09:11:02;7.77;;;6.57;;
15812;SDS011;8007;51.404;6.304;2022-10-17T09:13:09;9.23;;;6.80;;
15812;SDS011;8007;51.404;6.304;2022-10-17T09:15:28;10.50;;;6.60;;
15812;SDS011;8007;51.404;6.304;2022-10-17T09:17:34;9.47;;;6.10;;
15812;SDS011;8007;51.404;6.304;2022-10-17T09:19:38;8.83;;;6.13;;
15812;SDS011;8007;51.404;6.304;2022-10-17T09:21:42;8.30;;;6.20;;
15812;SDS011;8007;51.404;6.304;2022-10-17T09:23:46;11.47;;;6.50;;
15812;SDS011;8007;51.404;6.304;2022-10-17T09:25:51;8.23;;;5.90;;
15812;SDS011;8007;51.404;6.304;2022-10-17T09:27:58;10.30;;;6.57;;
15812;SDS011;8007;51.404;6.304;2022-10-17T09:32:26;7.77;;;6.47;;
15812;SDS011;8007;51.404;6.304;2022-10-17T09:34:32;10.03;;;5.80;;
15812;SDS011;8007;51.404;6.304;2022-10-17T09:36:35;9.33;;;5.80;;
15812;SDS011;8007;51.404;6.304;2022-10-17T09:38:39;10.50;;;6.30;;
15812;SDS011;8007;51.404;6.304;2022-10-17T09:40:42;7.10;;;5.77;;
15812;SDS011;8007;51.404;6.304;2022-10-17T09:42:45;6.73;;;5.40;;
15812;SDS011;8007;51.404;6.304;2022-10-17T09:44:50;6.93;;;5.23;;
15812;SDS011;8007;51.404;6.304;2022-10-17T09:47:10;9.03;;;5.70;;
15812;SDS011;8007;51.404;6.304;2022-10-17T09:49:16;11.07;;;5.40;;
15812;SDS011;8007;51.404;6.304;2022-10-17T09:51:21;8.83;;;5.53;;
15812;SDS011;8007;51.404;6.304;2022-10-17T09:53:25;7.53;;;5.20;;
15812;SDS011;8007;51.404;6.304;2022-10-17T09:55:30;6.67;;;5.17;;
15812;SDS011;8007;51.404;6.304;2022-10-17T09:59:56;6.37;;;5.33;;
15812;SDS011;8007;51.404;6.304;2022-10-17T10:04:25;8.23;;;6.17;;
15812;SDS011;8007;51.404;6.304;2022-10-17T10:06:27;8.93;;;6.00;;
15812;SDS011;8007;51.404;6.304;2022-10-17T10:08:35;10.27;;;6.50;;
15812;SDS011;8007;51.404;6.304;2022-10-17T10:10:37;8.13;;;6.00;;
15812;SDS011;8007;51.404;6.304;2022-10-17T10:12:44;15.17;;;6.60;;
15812;SDS011;8007;51.404;6.304;2022-10-17T10:15:05;7.77;;;5.57;;
15812;SDS011;8007;51.404;6.304;2022-10-17T10:17:32;13.00;;;6.10;;
15812;SDS011;8007;51.404;6.304;2022-10-17T10:19:35;6.87;;;6.03;;
15812;SDS011;8007;51.404;6.304;2022-10-17T10:21:38;7.97;;;6.37;;
15812;SDS011;8007;51.404;6.304;2022-10-17T10:24:02;10.87;;;6.53;;
15812;SDS011;8007;51.404;6.304;2022-10-17T10:26:11;8.90;;;6.17;;
15812;SDS011;8007;51.404;6.304;2022-10-17T10:28:16;8.17;;;6.43;;
15812;SDS011;8007;51.404;6.304;2022-10-17T10:30:20;7.67;;;6.50;;
15812;SDS011;8007;51.404;6.304;2022-10-17T10:32:24;9.13;;;6.57;;
15812;SDS011;8007;51.404;6.304;2022-10-17T10:34:30;12.43;;;6.77;;
15812;SDS011;8007;51.404;6.304;2022-10-17T10:39:01;7.43;;;6.50;;
15812;SDS011;8007;51.404;6.304;2022-10-17T10:41:04;8.80;;;7.40;;
15812;SDS011;8007;51.404;6.304;2022-10-17T10:43:15;12.03;;;8.30;;
15812;SDS011;8007;51.404;6.304;2022-10-17T10:45:23;11.37;;;7.77;;
15812;SDS011;8007;51.404;6.304;2022-10-17T10:47:26;14.20;;;7.47;;
15812;SDS011;8007;51.404;6.304;2022-10-17T10:49:29;9.17;;;7.40;;
15812;SDS011;8007;51.404;6.304;2022-10-17T10:51:34;10.93;;;8.33;;
15812;SDS011;8007;51.404;6.304;2022-10-17T10:53:40;9.80;;;7.67;;
15812;SDS011;8007;51.404;6.304;2022-10-17T10:55:45;14.97;;;8.60;;
15812;SDS011;8007;51.404;6.304;2022-10-17T10:57:49;10.27;;;8.00;;
15812;SDS011;8007;51.404;6.304;2022-10-17T10:59:53;11.23;;;7.53;;
15812;SDS011;8007;51.404;6.304;2022-10-17T11:02:01;13.33;;;8.60;;
15812;SDS011;8007;51.404;6.304;2022-10-17T11:04:13;10.33;;;8.33;;
15812;SDS011;8007;51.404;6.304;2022-10-17T11:06:20;15.10;;;8.40;;
15812;SDS011;8007;51.404;6.304;2022-10-17T11:08:25;14.97;;;9.83;;
15812;SDS011;8007;51.404;6.304;2022-10-17T11:10:31;21.30;;;9.70;;
15812;SDS011;8007;51.404;6.304;2022-10-17T11:12:38;10.57;;;9.03;;
15812;SDS011;8007;51.404;6.304;2022-10-17T11:14:44;12.03;;;9.43;;
15812;SDS011;8007;51.404;6.304;2022-10-17T11:16:48;18.37;;;12.10;;
15812;SDS011;8007;51.404;6.304;2022-10-17T11:19:10;17.23;;;9.60;;
15812;SDS011;8007;51.404;6.304;2022-10-17T11:21:34;12.93;;;9.40;;
15812;SDS011;8007;51.404;6.304;2022-10-17T11:23:39;13.90;;;8.67;;
15812;SDS011;8007;51.404;6.304;2022-10-17T11:25:42;11.00;;;7.97;;
15812;SDS011;8007;51.404;6.304;2022-10-17T11:27:44;13.07;;;8.83;;
15812;SDS011;8007;51.404;6.304;2022-10-17T11:29:47;10.23;;;8.33;;
15812;SDS011;8007;51.404;6.304;2022-10-17T11:31:49;10.73;;;7.50;;
15812;SDS011;8007;51.404;6.304;2022-10-17T11:33:54;10.13;;;7.90;;
15812;SDS011;8007;51.404;6.304;2022-10-17T11:36:03;9.37;;;7.80;;
15812;SDS011;8007;51.404;6.304;2022-10-17T11:38:11;12.53;;;7.93;;
15812;SDS011;8007;51.404;6.304;2022-10-17T11:40:16;8.70;;;7.73;;
15812;SDS011;8007;51.404;6.304;2022-10-17T11:42:57;13.73;;;7.93;;
15812;SDS011;8007;51.404;6.304;2022-10-17T11:45:01;13.47;;;8.03;;
15812;SDS011;8007;51.404;6.304;2022-10-17T11:47:05;10.47;;;7.93;;
15812;SDS011;8007;51.404;6.304;2022-10-17T11:49:09;11.67;;;8.43;;
15812;SDS011;8007;51.404;6.304;2022-10-17T11:51:14;11.47;;;8.03;;
15812;SDS011;8007;51.404;6.304;2022-10-17T11:53:18;9.53;;;8.03;;
15812;SDS011;8007;51.404;6.304;2022-10-17T11:55:21;11.53;;;9.00;;
15812;SDS011;8007;51.404;6.304;2022-10-17T11:59:57;9.83;;;7.73;;
15812;SDS011;8007;51.404;6.304;2022-10-17T12:02:02;13.80;;;9.00;;
15812;SDS011;8007;51.404;6.304;2022-10-17T12:04:16;10.97;;;8.63;;
15812;SDS011;8007;51.404;6.304;2022-10-17T12:06:25;11.07;;;8.30;;
15812;SDS011;8007;51.404;6.304;2022-10-17T12:08:32;10.37;;;7.97;;
15812;SDS011;8007;51.404;6.304;2022-10-17T12:10:41;18.03;;;8.20;;
15812;SDS011;8007;51.404;6.304;2022-10-17T12:12:44;10.67;;;7.23;;
15812;SDS011;8007;51.404;6.304;2022-10-17T12:14:47;11.10;;;7.10;;
15812;SDS011;8007;51.404;6.304;2022-10-17T12:16:49;8.73;;;6.43;;
15812;SDS011;8007;51.404;6.304;2022-10-17T12:21:12;7.87;;;5.93;;
15812;SDS011;8007;51.404;6.304;2022-10-17T12:23:20;10.80;;;6.73;;
15812;SDS011;8007;51.404;6.304;2022-10-17T12:25:25;8.67;;;6.10;;
15812;SDS011;8007;51.404;6.304;2022-10-17T12:27:33;8.73;;;6.27;;
15812;SDS011;8007;51.404;6.304;2022-10-17T12:29:36;7.80;;;5.40;;
15812;SDS011;8007;51.404;6.304;2022-10-17T12:31:38;9.63;;;5.90;;
15812;SDS011;8007;51.404;6.304;2022-10-17T12:33:47;9.40;;;6.47;;
15812;SDS011;8007;51.404;6.304;2022-10-17T12:35:50;10.60;;;5.37;;
15812;SDS011;8007;51.404;6.304;2022-10-17T12:37:59;7.50;;;5.80;;
15812;SDS011;8007;51.404;6.304;2022-10-17T12:40:09;9.40;;;5.40;;
15812;SDS011;8007;51.404;6.304;2022-10-17T12:42:47;10.87;;;5.07;;